createdAt,value
2023-02-05T00:01:50.430Z,9.98
2023-02-05T00:04:18.459Z,10.15
2023-02-05T00:06:46.456Z,10.32
2023-02-05T00:09:14.287Z,10.63
2023-02-05T00:11:42.106Z,10.68
2023-02-05T00:14:10.884Z,10.00
2023-02-05T00:16:40.069Z,10.10
2023-02-05T00:19:08.042Z,11.38
2023-02-05T00:21:36.357Z,11.00
2023-02-05T00:24:04.464Z,11.10
2023-02-05T00:26:32.360Z,11.25
2023-02-05T00:29:00.413Z,11.82
2023-02-05T00:31:29.026Z,11.23
2023-02-05T00:34:00.864Z,10.73
2023-02-05T00:36:28.808Z,10.85
2023-02-05T00:38:57.109Z,11.25
2023-02-05T00:41:25.260Z,9.85
2023-02-05T00:43:53.175Z,10.13
2023-02-05T00:46:21.150Z,10.70
2023-02-05T00:48:49.103Z,9.95
2023-02-05T00:51:18.415Z,10.23
2023-02-05T00:53:46.269Z,10.10
2023-02-05T00:56:14.652Z,9.95
2023-02-05T00:58:47.382Z,9.55
2023-02-05T01:01:15.883Z,10.68
2023-02-05T01:03:44.492Z,10.00
2023-02-05T01:06:13.385Z,9.90
2023-02-05T01:08:42.766Z,11.90
2023-02-05T01:11:11.516Z,10.32
2023-02-05T01:13:40.346Z,9.98
2023-02-05T01:16:10.327Z,10.23
2023-02-05T01:18:38.348Z,11.30
2023-02-05T01:21:06.471Z,10.98
2023-02-05T01:23:34.298Z,10.65
2023-02-05T01:26:03.512Z,11.88
2023-02-05T01:28:31.329Z,11.68
2023-02-05T01:30:59.262Z,11.00
2023-02-05T01:33:27.126Z,10.85
2023-02-05T01:35:54.892Z,10.68
2023-02-05T01:38:22.695Z,10.82
2023-02-05T01:40:50.508Z,10.02
2023-02-05T01:43:20.142Z,10.27
2023-02-05T01:46:12.289Z,10.40
2023-02-05T01:48:45.014Z,9.85
2023-02-05T01:51:17.044Z,9.68
2023-02-05T01:53:47.178Z,10.60
2023-02-05T01:56:20.940Z,9.65
2023-02-05T01:58:55.623Z,9.40
2023-02-05T02:01:24.069Z,9.10
2023-02-05T02:03:54.673Z,10.27
2023-02-05T02:06:22.497Z,10.35
2023-02-05T02:08:50.297Z,9.23
2023-02-05T02:11:20.833Z,9.85
2023-02-05T02:13:52.926Z,9.50
2023-02-05T02:16:21.478Z,10.20
2023-02-05T02:18:49.591Z,9.68
2023-02-05T02:21:39.992Z,9.48
2023-02-05T02:24:31.429Z,9.13
2023-02-05T02:27:19.228Z,9.00
2023-02-05T02:29:56.437Z,8.55
2023-02-05T02:32:31.349Z,8.32
2023-02-05T02:35:08.284Z,9.18
2023-02-05T02:37:41.020Z,8.32
2023-02-05T02:40:15.013Z,8.43
2023-02-05T02:42:48.594Z,8.55
2023-02-05T02:45:21.229Z,8.90
2023-02-05T02:47:53.680Z,8.75
2023-02-05T02:50:26.967Z,8.70
2023-02-05T02:52:56.893Z,8.40
2023-02-05T02:55:26.645Z,7.85
2023-02-05T02:57:57.070Z,8.20
2023-02-05T03:00:29.695Z,8.10
2023-02-05T03:03:03.812Z,8.00
2023-02-05T03:05:33.429Z,7.78
2023-02-05T03:08:07.670Z,7.55
2023-02-05T03:10:42.575Z,7.15
2023-02-05T03:13:12.178Z,7.97
2023-02-05T03:15:46.378Z,7.05
2023-02-05T03:18:16.766Z,6.85
2023-02-05T03:20:50.739Z,7.00
2023-02-05T03:23:19.661Z,7.03
2023-02-05T03:25:47.539Z,7.03
2023-02-05T03:28:18.049Z,7.20
2023-02-05T03:30:55.611Z,7.15
2023-02-05T03:33:46.949Z,6.80
2023-02-05T03:36:24.942Z,6.40
2023-02-05T03:39:08.260Z,6.05
2023-02-05T03:41:57.365Z,5.88
2023-02-05T03:45:05.787Z,6.20
2023-02-05T03:47:52.885Z,7.03
2023-02-05T03:50:26.131Z,5.63
2023-02-05T03:53:02.320Z,6.60
2023-02-05T03:55:34.829Z,6.00
2023-02-05T03:58:09.343Z,5.93
2023-02-05T04:00:38.676Z,6.20
2023-02-05T04:03:08.330Z,5.78
2023-02-05T04:05:37.443Z,6.10
2023-02-05T04:08:05.867Z,6.43
2023-02-05T04:10:40.126Z,5.65
2023-02-05T04:13:07.969Z,6.45
2023-02-05T04:15:36.852Z,6.50
2023-02-05T04:18:10.084Z,7.25
2023-02-05T04:20:38.025Z,6.40
2023-02-05T04:23:07.775Z,7.75
2023-02-05T04:25:37.500Z,7.03
2023-02-05T04:28:07.613Z,7.10
2023-02-05T04:30:35.682Z,7.43
2023-02-05T04:33:04.999Z,7.60
2023-02-05T04:35:34.772Z,8.23
2023-02-05T04:38:03.057Z,8.20
2023-02-05T04:40:30.988Z,8.20
2023-02-05T04:42:58.816Z,9.55
2023-02-05T04:45:31.015Z,9.68
2023-02-05T04:47:59.557Z,9.43
2023-02-05T04:50:27.946Z,10.98
2023-02-05T04:52:57.124Z,10.30
2023-02-05T04:55:24.877Z,9.60
2023-02-05T04:57:52.904Z,10.27
2023-02-05T05:00:21.241Z,10.05
2023-02-05T05:02:49.046Z,10.15
2023-02-05T05:05:17.162Z,10.80
2023-02-05T05:07:45.019Z,10.65
2023-02-05T05:10:14.211Z,10.57
2023-02-05T05:12:42.013Z,10.40
2023-02-05T05:15:10.265Z,10.10
2023-02-05T05:17:38.034Z,9.82
2023-02-05T05:20:06.442Z,10.65
2023-02-05T05:22:34.779Z,9.85
2023-02-05T05:25:02.581Z,10.45
2023-02-05T05:27:31.739Z,10.50
2023-02-05T05:29:59.516Z,10.15
2023-02-05T05:32:27.363Z,9.55
2023-02-05T05:34:57.060Z,10.20
2023-02-05T05:37:24.979Z,10.00
2023-02-05T05:40:10.012Z,10.63
2023-02-05T05:42:57.429Z,11.02
2023-02-05T05:45:25.515Z,9.25
2023-02-05T05:47:53.324Z,10.23
2023-02-05T05:50:21.310Z,9.90
2023-02-05T05:52:49.057Z,11.23
2023-02-05T05:55:16.987Z,11.02
2023-02-05T05:57:46.128Z,12.63
2023-02-05T06:00:15.342Z,11.88
2023-02-05T06:02:44.713Z,13.13
2023-02-05T06:05:14.170Z,12.82
2023-02-05T06:07:41.962Z,14.13
2023-02-05T06:10:10.264Z,13.27
2023-02-05T06:12:38.045Z,14.13
2023-02-05T06:15:08.505Z,13.23
2023-02-05T06:17:36.285Z,13.48
2023-02-05T06:20:04.225Z,14.93
2023-02-05T06:22:31.980Z,14.02
2023-02-05T06:24:59.734Z,13.98
2023-02-05T06:27:27.543Z,14.35
2023-02-05T06:29:55.364Z,14.30
2023-02-05T06:32:26.742Z,15.02
2023-02-05T06:34:54.760Z,14.65
2023-02-05T06:37:34.195Z,14.82
2023-02-05T06:40:15.616Z,13.32
2023-02-05T06:42:43.857Z,14.40
2023-02-05T06:45:12.352Z,14.07
2023-02-05T06:47:41.547Z,13.65
2023-02-05T06:50:10.066Z,13.32
2023-02-05T06:52:38.217Z,12.50
2023-02-05T06:55:06.808Z,12.32
2023-02-05T06:57:34.585Z,12.65
2023-02-05T07:00:02.400Z,12.25
2023-02-05T07:02:30.202Z,12.90
2023-02-05T07:04:59.349Z,12.48
2023-02-05T07:07:27.135Z,12.57
2023-02-05T07:09:55.208Z,13.02
2023-02-05T07:12:24.113Z,12.63
2023-02-05T07:14:51.861Z,11.35
2023-02-05T07:17:20.868Z,12.27
2023-02-05T07:19:48.769Z,10.95
2023-02-05T07:22:17.921Z,10.50
2023-02-05T07:24:45.741Z,10.55
2023-02-05T07:27:13.638Z,11.52
2023-02-05T07:29:41.492Z,10.30
2023-02-05T07:32:09.542Z,9.75
2023-02-05T07:34:37.463Z,9.45
2023-02-05T07:37:05.209Z,10.60
2023-02-05T07:39:34.454Z,9.85
2023-02-05T07:42:02.262Z,8.95
2023-02-05T07:44:38.390Z,9.45
2023-02-05T07:47:06.321Z,9.15
2023-02-05T07:49:34.179Z,9.23
2023-02-05T07:52:02.011Z,9.38
2023-02-05T07:54:29.871Z,8.73
2023-02-05T07:57:00.134Z,10.10
2023-02-05T07:59:28.340Z,9.48
2023-02-05T08:01:56.098Z,9.43
2023-02-05T08:04:23.961Z,9.63
2023-02-05T08:06:51.820Z,9.30
2023-02-05T08:09:19.738Z,8.82
2023-02-05T08:11:47.596Z,8.40
2023-02-05T08:14:16.992Z,9.48
2023-02-05T08:16:44.753Z,8.60
2023-02-05T08:19:16.154Z,8.02
2023-02-05T08:21:44.337Z,8.13
2023-02-05T08:24:12.170Z,8.30
2023-02-05T08:26:40.419Z,7.90
2023-02-05T08:29:08.853Z,7.50
2023-02-05T08:31:38.801Z,7.45
2023-02-05T08:34:06.873Z,7.15
2023-02-05T08:36:34.744Z,6.68
2023-02-05T08:39:02.522Z,6.07
2023-02-05T08:41:30.420Z,6.32
2023-02-05T08:43:58.201Z,6.82
2023-02-05T08:46:31.545Z,5.13
2023-02-05T08:49:06.601Z,4.20
2023-02-05T08:51:35.694Z,3.10
2023-02-05T08:54:03.689Z,2.80
2023-02-05T08:56:31.808Z,2.40
2023-02-05T08:58:59.614Z,2.20
2023-02-05T09:01:27.403Z,1.77
2023-02-05T09:03:55.280Z,1.88
2023-02-05T09:06:24.630Z,1.63
2023-02-05T09:08:52.566Z,1.52
2023-02-05T09:11:21.937Z,1.80
2023-02-05T09:13:49.804Z,1.65
2023-02-05T09:16:17.577Z,1.42
2023-02-05T09:18:45.717Z,1.70
2023-02-05T09:21:14.729Z,1.33
2023-02-05T09:23:43.951Z,1.60
2023-02-05T09:26:11.761Z,1.73
2023-02-05T09:28:39.618Z,1.85
2023-02-05T09:31:09.274Z,1.20
2023-02-05T09:33:37.550Z,1.10
2023-02-05T09:36:09.621Z,1.00
2023-02-05T09:38:37.860Z,1.50
2023-02-05T09:41:16.165Z,1.13
2023-02-05T09:43:51.744Z,0.88
2023-02-05T09:46:27.952Z,1.50
2023-02-05T09:49:00.810Z,1.27
2023-02-05T09:51:34.840Z,1.70
2023-02-05T09:54:12.961Z,1.50
2023-02-05T09:56:43.968Z,1.33
2023-02-05T09:59:17.152Z,1.15
2023-02-05T10:01:49.046Z,1.20
2023-02-05T10:04:17.112Z,1.00
2023-02-05T10:07:17.079Z,1.05
2023-02-05T10:10:00.953Z,1.15
2023-02-05T10:12:43.136Z,1.27
2023-02-05T10:15:26.761Z,1.70
2023-02-05T10:18:09.201Z,1.50
2023-02-05T10:20:53.151Z,1.55
2023-02-05T10:23:36.105Z,1.38
2023-02-05T10:26:10.936Z,1.50
2023-02-05T10:28:56.093Z,1.15
2023-02-05T10:31:29.131Z,1.10
2023-02-05T10:36:32.248Z,1.00
2023-02-05T10:39:01.609Z,0.98
2023-02-05T10:41:36.751Z,1.13
2023-02-05T10:44:13.358Z,1.20
2023-02-05T10:46:42.799Z,1.17
2023-02-05T10:49:16.400Z,1.30
2023-02-05T10:51:46.379Z,1.23
2023-02-05T10:54:21.562Z,1.30
2023-02-05T10:56:49.570Z,1.15
2023-02-05T10:59:23.617Z,1.13
2023-02-05T11:01:52.572Z,1.27
2023-02-05T11:04:27.784Z,1.60
2023-02-05T11:06:55.869Z,1.38
2023-02-05T11:09:35.554Z,1.45
2023-02-05T11:12:06.299Z,1.38
2023-02-05T11:14:37.931Z,1.08
2023-02-05T11:17:11.419Z,1.05
2023-02-05T11:19:39.540Z,1.10
2023-02-05T11:22:07.338Z,1.00
2023-02-05T11:24:39.469Z,2.22
2023-02-05T11:27:28.873Z,1.30
2023-02-05T11:30:01.099Z,1.40
2023-02-05T11:32:36.194Z,1.50
2023-02-05T11:35:19.090Z,1.30
2023-02-05T11:37:49.841Z,1.40
2023-02-05T11:40:22.629Z,1.70
2023-02-05T11:43:01.417Z,1.50
2023-02-05T11:45:32.541Z,1.88
2023-02-05T11:48:05.150Z,1.70
2023-02-05T11:50:34.459Z,1.40
2023-02-05T11:53:16.409Z,1.63
2023-02-05T11:55:45.625Z,1.50
2023-02-05T11:58:36.154Z,1.33
2023-02-05T12:01:21.942Z,1.48
2023-02-05T12:04:00.190Z,1.50
2023-02-05T12:06:34.735Z,1.88
2023-02-05T12:09:03.383Z,1.80
2023-02-05T12:12:00.204Z,1.80
2023-02-05T12:14:39.364Z,1.73
2023-02-05T12:17:24.742Z,1.75
2023-02-05T12:19:59.540Z,1.67
2023-02-05T12:22:45.574Z,1.98
2023-02-05T12:25:21.792Z,2.03
2023-02-05T12:28:04.815Z,1.60
2023-02-05T12:33:28.599Z,1.70
2023-02-05T12:36:08.293Z,1.58
2023-02-05T12:38:49.278Z,1.77
2023-02-05T12:41:27.659Z,1.73
2023-02-05T12:44:04.198Z,1.30
2023-02-05T12:46:46.169Z,1.70
2023-02-05T12:49:29.035Z,1.40
2023-02-05T12:52:15.034Z,1.20
2023-02-05T12:54:55.912Z,1.05
2023-02-05T12:57:27.635Z,1.10
2023-02-05T13:00:02.082Z,1.00
2023-02-05T13:02:36.358Z,1.00
2023-02-05T13:05:16.916Z,1.48
2023-02-05T13:07:49.234Z,1.10
2023-02-05T13:10:19.794Z,0.70
2023-02-05T13:12:54.084Z,1.00
2023-02-05T13:15:24.337Z,1.00
2023-02-05T13:18:00.691Z,0.90
2023-02-05T13:20:51.343Z,0.90
2023-02-05T13:23:37.790Z,1.10
2023-02-05T13:26:24.734Z,1.20
2023-02-05T13:28:55.121Z,1.10
2023-02-05T13:31:31.511Z,1.23
2023-02-05T13:34:04.863Z,1.40
2023-02-05T13:37:15.018Z,0.90
2023-02-05T13:40:19.765Z,1.13
2023-02-05T13:43:20.971Z,0.80
2023-02-05T13:46:18.900Z,1.20
2023-02-05T13:49:23.398Z,1.00
2023-02-05T13:52:25.184Z,0.90
2023-02-05T13:55:26.271Z,0.82
2023-02-05T13:58:14.757Z,1.00
2023-02-05T14:00:45.477Z,0.93
2023-02-05T14:03:34.954Z,1.20
2023-02-05T14:06:24.115Z,1.10
2023-02-05T14:08:57.389Z,1.20
2023-02-05T14:11:26.962Z,0.90
2023-02-05T14:14:26.676Z,1.33
2023-02-05T14:16:56.021Z,0.98
2023-02-05T14:19:26.952Z,1.02
2023-02-05T14:22:07.322Z,1.30
2023-02-05T14:24:42.303Z,1.13
2023-02-05T14:27:52.296Z,1.05
2023-02-05T14:30:53.013Z,1.20
2023-02-05T14:33:38.840Z,1.08
2023-02-05T14:36:43.442Z,1.08
2023-02-05T14:39:23.062Z,1.17
2023-02-05T14:41:55.931Z,0.98
2023-02-05T14:44:28.537Z,1.00
2023-02-05T14:47:07.181Z,1.05
2023-02-05T14:49:42.845Z,1.20
2023-02-05T14:52:28.034Z,1.13
2023-02-05T14:55:01.546Z,1.38
2023-02-05T14:57:36.525Z,1.00
2023-02-05T15:00:08.818Z,1.00
2023-02-05T15:03:08.425Z,0.90
2023-02-05T15:05:42.352Z,0.88
2023-02-05T15:08:15.614Z,0.93
2023-02-05T15:10:48.772Z,1.02
2023-02-05T15:13:18.342Z,1.30
2023-02-05T15:16:24.830Z,1.27
2023-02-05T15:18:57.462Z,1.13
2023-02-05T15:21:29.599Z,1.30
2023-02-05T15:24:02.538Z,1.03
2023-02-05T15:26:40.725Z,1.35
2023-02-05T15:29:14.737Z,1.63
2023-02-05T15:31:47.092Z,1.40
2023-02-05T15:34:30.854Z,1.23
2023-02-05T15:37:05.071Z,1.10
2023-02-05T15:39:42.307Z,1.25
2023-02-05T15:42:16.746Z,1.40
2023-02-05T15:44:44.978Z,1.50
2023-02-05T15:47:19.225Z,1.70
2023-02-05T15:49:51.604Z,1.50
2023-02-05T15:52:23.724Z,1.50
2023-02-05T15:54:54.348Z,1.43
2023-02-05T15:57:26.064Z,1.70
2023-02-05T15:59:55.446Z,2.05
2023-02-05T16:02:26.218Z,1.92
2023-02-05T16:04:58.245Z,1.50
2023-02-05T16:07:27.954Z,1.50
2023-02-05T16:09:58.637Z,1.50
2023-02-05T16:12:27.185Z,1.40
2023-02-05T16:15:02.599Z,1.92
2023-02-05T16:17:37.056Z,1.50
2023-02-05T16:20:18.571Z,1.92
2023-02-05T16:22:49.371Z,1.50
2023-02-05T16:25:31.443Z,2.03
2023-02-05T16:28:01.897Z,1.30
2023-02-05T16:30:34.408Z,1.60
2023-02-05T16:33:05.378Z,1.73
2023-02-05T16:35:38.769Z,1.77
2023-02-05T16:38:09.375Z,1.65
2023-02-05T16:40:43.070Z,1.83
2023-02-05T16:43:31.693Z,1.88
2023-02-05T16:46:25.705Z,1.85
2023-02-05T16:48:55.462Z,1.70
2023-02-05T16:51:40.596Z,1.75
2023-02-05T16:54:33.901Z,1.88
2023-02-05T16:57:10.301Z,1.80
2023-02-05T16:59:52.745Z,1.70
2023-02-05T17:02:29.622Z,2.50
2023-02-05T17:04:59.136Z,1.45
2023-02-05T17:07:29.369Z,1.90
2023-02-05T17:10:17.507Z,1.48
2023-02-05T17:12:52.403Z,1.55
2023-02-05T17:15:29.953Z,1.55
2023-02-05T17:18:04.435Z,1.90
2023-02-05T17:20:34.389Z,1.52
2023-02-05T17:23:11.719Z,2.22
2023-02-05T17:25:42.037Z,1.88
2023-02-05T17:28:16.781Z,1.83
2023-02-05T17:30:46.311Z,1.60
2023-02-05T17:33:17.906Z,1.85
2023-02-05T17:35:45.991Z,1.92
2023-02-05T17:38:15.905Z,1.77
2023-02-05T17:40:44.278Z,2.55
2023-02-05T17:43:12.066Z,1.90
2023-02-05T17:45:41.430Z,2.10
2023-02-05T17:48:10.052Z,2.40
2023-02-05T17:50:38.600Z,1.80
2023-02-05T17:53:06.706Z,2.03
2023-02-05T17:55:35.959Z,2.05
2023-02-05T17:58:03.800Z,1.83
2023-02-05T18:00:32.921Z,1.70
2023-02-05T18:03:00.912Z,2.75
2023-02-05T18:05:28.800Z,1.73
2023-02-05T18:07:58.689Z,1.65
2023-02-05T18:10:28.743Z,2.08
2023-02-05T18:12:57.983Z,2.33
2023-02-05T18:15:26.926Z,2.47
2023-02-05T18:17:54.804Z,2.45
2023-02-05T18:20:22.738Z,2.30
2023-02-05T18:22:50.781Z,2.63
2023-02-05T18:25:18.752Z,2.50
2023-02-05T18:27:47.543Z,2.97
2023-02-05T18:30:16.979Z,2.42
2023-02-05T18:32:44.819Z,2.75
2023-02-05T18:35:14.774Z,2.70
2023-02-05T18:37:43.655Z,2.80
2023-02-05T18:40:13.551Z,2.50
2023-02-05T18:42:41.602Z,2.53
2023-02-05T18:45:10.742Z,2.60
2023-02-05T18:47:40.171Z,2.33
2023-02-05T18:50:10.269Z,2.10
2023-02-05T18:52:38.692Z,2.78
2023-02-05T18:55:07.673Z,2.38
2023-02-05T18:57:35.648Z,2.25
2023-02-05T19:00:03.602Z,2.20
2023-02-05T19:02:33.652Z,2.33
2023-02-05T19:05:04.227Z,2.10
2023-02-05T19:07:32.106Z,2.35
2023-02-05T19:10:00.110Z,1.73
2023-02-05T19:12:27.915Z,2.78
2023-02-05T19:14:55.988Z,2.10
2023-02-05T19:17:27.284Z,1.90
2023-02-05T19:19:55.660Z,2.33
2023-02-05T19:22:24.847Z,2.50
2023-02-05T19:24:52.917Z,2.28
2023-02-05T19:27:20.900Z,2.38
2023-02-05T19:29:50.306Z,2.38
2023-02-05T19:32:18.098Z,2.40
2023-02-05T19:34:46.650Z,2.58
2023-02-05T19:37:14.633Z,1.92
2023-02-05T19:39:43.853Z,2.75
2023-02-05T19:42:11.747Z,1.98
2023-02-05T19:44:39.635Z,2.65
2023-02-05T19:47:08.499Z,2.13
2023-02-05T19:49:36.564Z,2.40
2023-02-05T19:52:05.327Z,2.25
2023-02-05T19:54:33.263Z,2.30
2023-02-05T19:57:02.776Z,2.35
2023-02-05T19:59:30.573Z,2.17
2023-02-05T20:01:58.439Z,2.13
2023-02-05T20:04:28.715Z,2.45
2023-02-05T20:06:58.180Z,2.22
2023-02-05T20:09:27.294Z,2.30
2023-02-05T20:11:55.723Z,2.35
2023-02-05T20:14:25.481Z,3.17
2023-02-05T20:16:53.723Z,2.42
2023-02-05T20:19:21.918Z,2.28
2023-02-05T20:21:49.986Z,2.40
2023-02-05T20:24:17.884Z,3.03
2023-02-05T20:26:48.278Z,3.08
2023-02-05T20:29:33.906Z,2.40
2023-02-05T20:32:03.167Z,2.20
2023-02-05T20:34:34.052Z,2.75
2023-02-05T20:37:05.594Z,2.92
2023-02-05T20:39:35.308Z,3.05
2023-02-05T20:42:03.779Z,2.70
2023-02-05T20:44:33.768Z,2.90
2023-02-05T20:47:03.196Z,3.35
2023-02-05T20:49:31.054Z,2.67
2023-02-05T20:51:59.049Z,2.60
2023-02-05T20:54:26.879Z,2.40
2023-02-05T20:56:56.988Z,2.53
2023-02-05T20:59:24.934Z,2.15
2023-02-05T21:01:52.986Z,2.33
2023-02-05T21:04:22.677Z,2.35
2023-02-05T21:06:50.560Z,2.60
2023-02-05T21:09:18.394Z,2.58
2023-02-05T21:11:46.221Z,2.53
2023-02-05T21:14:14.150Z,2.42
2023-02-05T21:16:41.949Z,2.60
2023-02-05T21:19:10.314Z,2.60
2023-02-05T21:21:40.864Z,2.40
2023-02-05T21:24:12.298Z,3.05
2023-02-05T21:26:42.164Z,2.88
2023-02-05T21:29:11.691Z,2.53
2023-02-05T21:31:41.743Z,2.40
2023-02-05T21:34:11.899Z,2.53
2023-02-05T21:36:41.396Z,3.13
2023-02-05T21:39:10.597Z,2.40
2023-02-05T21:41:38.646Z,2.47
2023-02-05T21:44:06.519Z,2.45
2023-02-05T21:46:34.772Z,2.40
2023-02-05T21:49:04.084Z,2.47
2023-02-05T21:51:33.992Z,2.40
2023-02-05T21:54:05.493Z,2.30
2023-02-05T21:56:35.493Z,2.67
2023-02-05T21:59:03.479Z,2.63
2023-02-05T22:01:33.114Z,3.47
2023-02-05T22:04:02.540Z,3.20
2023-02-05T22:06:32.369Z,3.28
2023-02-05T22:09:01.464Z,2.75
2023-02-05T22:11:30.704Z,3.17
2023-02-05T22:13:58.516Z,3.10
2023-02-05T22:16:27.985Z,2.67
2023-02-05T22:18:58.352Z,2.80
2023-02-05T22:21:28.242Z,2.70
2023-02-05T22:23:57.484Z,2.67
2023-02-05T22:26:28.344Z,2.75
2023-02-05T22:28:59.311Z,3.03
2023-02-05T22:31:29.512Z,2.80
2023-02-05T22:33:58.038Z,2.80
2023-02-05T22:36:27.862Z,3.42
2023-02-05T22:38:56.335Z,2.53
2023-02-05T22:41:26.323Z,3.08
2023-02-05T22:43:55.444Z,3.00
2023-02-05T22:46:26.678Z,2.70
2023-02-05T22:48:55.425Z,2.97
2023-02-05T22:51:27.019Z,3.03
2023-02-05T22:53:55.635Z,3.13
2023-02-05T22:56:24.161Z,3.28
2023-02-05T22:58:53.631Z,3.55
2023-02-05T23:01:24.781Z,3.10
2023-02-05T23:03:52.913Z,3.33
2023-02-05T23:06:23.580Z,2.95
2023-02-05T23:08:52.524Z,3.00
2023-02-05T23:11:20.819Z,3.42
2023-02-05T23:13:49.030Z,3.10
2023-02-05T23:16:19.352Z,2.83
2023-02-05T23:18:49.635Z,3.28
2023-02-05T23:21:20.472Z,3.20
2023-02-05T23:23:49.719Z,3.08
2023-02-05T23:26:19.865Z,2.80
2023-02-05T23:28:48.339Z,3.70
2023-02-05T23:31:16.714Z,4.28
2023-02-05T23:33:44.838Z,3.58
2023-02-05T23:36:14.641Z,3.25
2023-02-05T23:38:42.723Z,3.45
2023-02-05T23:41:12.198Z,3.35
2023-02-05T23:43:40.319Z,3.45
2023-02-05T23:46:08.712Z,3.00
2023-02-05T23:48:36.958Z,2.92
2023-02-05T23:51:04.798Z,3.97
2023-02-05T23:53:34.015Z,3.20
2023-02-05T23:56:01.993Z,3.47
2023-02-05T23:58:29.874Z,2.90
